Wiseman, Arkansas
Current Conditions -  °F | °C
As of 10:35 AM on Monday 24 Nov 2014 (Local Time) from KBVX Reporting Station
Clear Clear  
Wind Chill: 52°   Ceiling: Unl
Heat Index: 52°   Visibility: 10mi
Dew Point: 30°   Wind: 9mph
Humidity: 44%   Direction: 280°W
Pressure: 29.87"   Gusts: 16mph
Location:  36.23°N, 91.82°W
Report Text: KBVX 241635Z AUTO 28008G14KT 10SM CLR 11/M01 A2987 RMK AO1
Loading
Personal Weather Stations






























Interactive Weather Map New forecast layout! Learn more

10-Day Weather Forecast

Advertisements
Track Severe Weather on mobile